sensor_id;sensor_type;location;lat;lon;timestamp;temperature;humidity
37050;DHT22;22958;51.232;6.826;2023-04-24T00:00:55;11.50;99.90
37050;DHT22;22958;51.232;6.826;2023-04-24T00:03:26;11.40;99.90
37050;DHT22;22958;51.232;6.826;2023-04-24T00:05:53;11.40;99.90
37050;DHT22;22958;51.232;6.826;2023-04-24T00:08:19;11.30;99.90
37050;DHT22;22958;51.232;6.826;2023-04-24T00:10:44;11.30;99.90
37050;DHT22;22958;51.232;6.826;2023-04-24T00:13:10;11.30;99.90
37050;DHT22;22958;51.232;6.826;2023-04-24T00:15:35;11.20;99.90
37050;DHT22;22958;51.232;6.826;2023-04-24T00:18:01;11.20;99.90
37050;DHT22;22958;51.232;6.826;2023-04-24T00:20:28;11.10;99.90
37050;DHT22;22958;51.232;6.826;2023-04-24T00:22:57;11.10;99.90
37050;DHT22;22958;51.232;6.826;2023-04-24T00:25:23;11.10;99.90
37050;DHT22;22958;51.232;6.826;2023-04-24T00:27:48;11.10;99.90
37050;DHT22;22958;51.232;6.826;2023-04-24T00:30:14;11.10;99.90
37050;DHT22;22958;51.232;6.826;2023-04-24T00:32:40;11.00;99.90
37050;DHT22;22958;51.232;6.826;2023-04-24T00:35:06;11.00;99.90
37050;DHT22;22958;51.232;6.826;2023-04-24T00:37:32;11.00;99.90
37050;DHT22;22958;51.232;6.826;2023-04-24T00:39:57;11.00;99.90
37050;DHT22;22958;51.232;6.826;2023-04-24T00:42:24;11.00;99.90
37050;DHT22;22958;51.232;6.826;2023-04-24T00:44:50;11.00;99.90
37050;DHT22;22958;51.232;6.826;2023-04-24T00:47:16;11.00;99.90
37050;DHT22;22958;51.232;6.826;2023-04-24T00:49:42;11.00;99.90
37050;DHT22;22958;51.232;6.826;2023-04-24T00:52:07;11.10;99.90
37050;DHT22;22958;51.232;6.826;2023-04-24T00:54:34;11.10;99.90
37050;DHT22;22958;51.232;6.826;2023-04-24T00:57:01;11.10;99.90
37050;DHT22;22958;51.232;6.826;2023-04-24T00:59:27;11.10;99.90
37050;DHT22;22958;51.232;6.826;2023-04-24T01:01:53;11.10;99.90
37050;DHT22;22958;51.232;6.826;2023-04-24T01:04:19;11.10;99.90
37050;DHT22;22958;51.232;6.826;2023-04-24T01:06:45;11.10;99.90
37050;DHT22;22958;51.232;6.826;2023-04-24T01:09:11;11.10;99.90
37050;DHT22;22958;51.232;6.826;2023-04-24T01:11:37;11.00;99.90
37050;DHT22;22958;51.232;6.826;2023-04-24T01:14:03;11.00;99.90
37050;DHT22;22958;51.232;6.826;2023-04-24T01:16:28;11.00;99.90
37050;DHT22;22958;51.232;6.826;2023-04-24T01:18:54;10.90;99.90
37050;DHT22;22958;51.232;6.826;2023-04-24T01:21:21;10.80;99.90
37050;DHT22;22958;51.232;6.826;2023-04-24T01:23:48;10.70;99.90
37050;DHT22;22958;51.232;6.826;2023-04-24T01:26:17;10.60;99.90
37050;DHT22;22958;51.232;6.826;2023-04-24T01:28:42;10.40;99.90
37050;DHT22;22958;51.232;6.826;2023-04-24T01:31:08;10.30;99.90
37050;DHT22;22958;51.232;6.826;2023-04-24T01:33:34;10.20;99.90
37050;DHT22;22958;51.232;6.826;2023-04-24T01:35:59;10.10;99.90
37050;DHT22;22958;51.232;6.826;2023-04-24T01:38:25;10.00;99.90
37050;DHT22;22958;51.232;6.826;2023-04-24T01:40:51;10.00;99.90
37050;DHT22;22958;51.232;6.826;2023-04-24T01:43:17;9.90;99.90
37050;DHT22;22958;51.232;6.826;2023-04-24T01:45:43;9.90;99.90
37050;DHT22;22958;51.232;6.826;2023-04-24T01:48:08;9.90;99.90
37050;DHT22;22958;51.232;6.826;2023-04-24T01:50:34;9.90;99.90
37050;DHT22;22958;51.232;6.826;2023-04-24T01:52:59;9.80;99.90
37050;DHT22;22958;51.232;6.826;2023-04-24T01:55:25;9.80;99.90
37050;DHT22;22958;51.232;6.826;2023-04-24T01:57:52;9.90;99.90
37050;DHT22;22958;51.232;6.826;2023-04-24T02:00:20;9.90;99.90
37050;DHT22;22958;51.232;6.826;2023-04-24T02:02:45;9.90;99.90
37050;DHT22;22958;51.232;6.826;2023-04-24T02:05:11;9.90;99.90
37050;DHT22;22958;51.232;6.826;2023-04-24T02:07:37;9.90;99.90
37050;DHT22;22958;51.232;6.826;2023-04-24T02:10:03;9.90;99.90
37050;DHT22;22958;51.232;6.826;2023-04-24T02:12:29;9.90;99.90
37050;DHT22;22958;51.232;6.826;2023-04-24T02:14:55;9.90;99.90
37050;DHT22;22958;51.232;6.826;2023-04-24T02:17:20;9.90;99.90
37050;DHT22;22958;51.232;6.826;2023-04-24T02:19:46;10.00;99.90
37050;DHT22;22958;51.232;6.826;2023-04-24T02:22:11;10.00;99.90
37050;DHT22;22958;51.232;6.826;2023-04-24T02:24:38;10.00;99.90
37050;DHT22;22958;51.232;6.826;2023-04-24T02:27:03;10.00;99.90
37050;DHT22;22958;51.232;6.826;2023-04-24T02:29:29;10.00;99.90
37050;DHT22;22958;51.232;6.826;2023-04-24T02:31:54;10.00;99.90
37050;DHT22;22958;51.232;6.826;2023-04-24T02:34:21;10.00;99.90
37050;DHT22;22958;51.232;6.826;2023-04-24T02:36:46;10.00;99.90
37050;DHT22;22958;51.232;6.826;2023-04-24T02:39:12;10.00;99.90
37050;DHT22;22958;51.232;6.826;2023-04-24T02:41:38;10.10;99.90
37050;DHT22;22958;51.232;6.826;2023-04-24T02:44:04;10.00;99.90
37050;DHT22;22958;51.232;6.826;2023-04-24T02:46:30;10.00;99.90
37050;DHT22;22958;51.232;6.826;2023-04-24T02:48:55;10.00;99.90
37050;DHT22;22958;51.232;6.826;2023-04-24T02:51:21;10.10;99.90
37050;DHT22;22958;51.232;6.826;2023-04-24T02:53:46;10.10;99.90
37050;DHT22;22958;51.232;6.826;2023-04-24T02:56:12;10.10;99.90
37050;DHT22;22958;51.232;6.826;2023-04-24T02:58:38;10.10;99.90
37050;DHT22;22958;51.232;6.826;2023-04-24T03:01:03;10.00;99.90
37050;DHT22;22958;51.232;6.826;2023-04-24T03:03:29;10.10;99.90
37050;DHT22;22958;51.232;6.826;2023-04-24T03:05:55;10.10;99.90
37050;DHT22;22958;51.232;6.826;2023-04-24T03:08:21;10.10;99.90
37050;DHT22;22958;51.232;6.826;2023-04-24T03:10:46;10.00;99.90
37050;DHT22;22958;51.232;6.826;2023-04-24T03:13:12;10.10;99.90
37050;DHT22;22958;51.232;6.826;2023-04-24T03:15:37;10.10;99.90
37050;DHT22;22958;51.232;6.826;2023-04-24T03:18:03;10.10;99.90
37050;DHT22;22958;51.232;6.826;2023-04-24T03:20:28;10.10;99.90
37050;DHT22;22958;51.232;6.826;2023-04-24T03:22:54;10.10;99.90
37050;DHT22;22958;51.232;6.826;2023-04-24T03:25:19;10.10;99.90
37050;DHT22;22958;51.232;6.826;2023-04-24T03:27:45;10.10;99.90
37050;DHT22;22958;51.232;6.826;2023-04-24T03:30:11;10.10;99.90
37050;DHT22;22958;51.232;6.826;2023-04-24T03:32:37;10.10;99.90
37050;DHT22;22958;51.232;6.826;2023-04-24T03:35:05;10.10;99.90
37050;DHT22;22958;51.232;6.826;2023-04-24T03:37:31;10.10;99.90
37050;DHT22;22958;51.232;6.826;2023-04-24T03:39:57;10.00;99.90
37050;DHT22;22958;51.232;6.826;2023-04-24T03:42:22;10.10;99.90
37050;DHT22;22958;51.232;6.826;2023-04-24T03:44:48;10.10;99.90
37050;DHT22;22958;51.232;6.826;2023-04-24T03:47:13;10.10;99.90
37050;DHT22;22958;51.232;6.826;2023-04-24T03:49:39;10.10;99.90
37050;DHT22;22958;51.232;6.826;2023-04-24T03:52:04;10.10;99.90
37050;DHT22;22958;51.232;6.826;2023-04-24T03:54:30;10.10;99.90
37050;DHT22;22958;51.232;6.826;2023-04-24T03:56:55;10.10;99.90
37050;DHT22;22958;51.232;6.826;2023-04-24T03:59:21;10.10;99.90
37050;DHT22;22958;51.232;6.826;2023-04-24T04:01:46;10.10;99.90
37050;DHT22;22958;51.232;6.826;2023-04-24T04:04:12;10.10;99.90
37050;DHT22;22958;51.232;6.826;2023-04-24T04:06:37;10.00;99.90
37050;DHT22;22958;51.232;6.826;2023-04-24T04:09:03;10.10;99.90
37050;DHT22;22958;51.232;6.826;2023-04-24T04:11:29;10.10;99.90
37050;DHT22;22958;51.232;6.826;2023-04-24T04:13:55;10.00;99.90
37050;DHT22;22958;51.232;6.826;2023-04-24T04:16:22;10.00;99.90
37050;DHT22;22958;51.232;6.826;2023-04-24T04:18:48;10.00;99.90
37050;DHT22;22958;51.232;6.826;2023-04-24T04:21:13;10.00;99.90
37050;DHT22;22958;51.232;6.826;2023-04-24T04:23:39;10.00;99.90
37050;DHT22;22958;51.232;6.826;2023-04-24T04:26:05;10.00;99.90
37050;DHT22;22958;51.232;6.826;2023-04-24T04:28:31;10.00;99.90
37050;DHT22;22958;51.232;6.826;2023-04-24T04:30:57;10.00;99.90
37050;DHT22;22958;51.232;6.826;2023-04-24T04:33:25;10.00;99.90
37050;DHT22;22958;51.232;6.826;2023-04-24T04:35:51;10.00;99.90
37050;DHT22;22958;51.232;6.826;2023-04-24T04:38:18;9.90;99.90
37050;DHT22;22958;51.232;6.826;2023-04-24T04:40:44;9.90;99.90
37050;DHT22;22958;51.232;6.826;2023-04-24T04:43:10;9.90;99.90
37050;DHT22;22958;51.232;6.826;2023-04-24T04:45:39;9.90;99.90
37050;DHT22;22958;51.232;6.826;2023-04-24T04:48:06;9.90;99.90
37050;DHT22;22958;51.232;6.826;2023-04-24T04:50:34;9.90;99.90
37050;DHT22;22958;51.232;6.826;2023-04-24T04:53:00;9.90;99.90
37050;DHT22;22958;51.232;6.826;2023-04-24T04:55:25;9.80;99.90
37050;DHT22;22958;51.232;6.826;2023-04-24T04:57:51;9.70;99.90
37050;DHT22;22958;51.232;6.826;2023-04-24T05:00:17;9.40;99.90
37050;DHT22;22958;51.232;6.826;2023-04-24T05:02:43;9.10;99.90
37050;DHT22;22958;51.232;6.826;2023-04-24T05:05:08;8.90;99.90
37050;DHT22;22958;51.232;6.826;2023-04-24T05:07:34;8.90;99.90
37050;DHT22;22958;51.232;6.826;2023-04-24T05:10:00;8.80;99.90
37050;DHT22;22958;51.232;6.826;2023-04-24T05:12:25;8.80;99.90
37050;DHT22;22958;51.232;6.826;2023-04-24T05:14:51;8.90;99.90
37050;DHT22;22958;51.232;6.826;2023-04-24T05:17:16;8.90;99.90
37050;DHT22;22958;51.232;6.826;2023-04-24T05:19:42;9.00;99.90
37050;DHT22;22958;51.232;6.826;2023-04-24T05:22:08;9.10;99.90
37050;DHT22;22958;51.232;6.826;2023-04-24T05:24:35;9.20;99.90
37050;DHT22;22958;51.232;6.826;2023-04-24T05:27:00;9.30;99.90
37050;DHT22;22958;51.232;6.826;2023-04-24T05:29:27;9.20;99.90
37050;DHT22;22958;51.232;6.826;2023-04-24T05:31:53;9.10;99.90
37050;DHT22;22958;51.232;6.826;2023-04-24T05:34:18;9.00;99.90
37050;DHT22;22958;51.232;6.826;2023-04-24T05:36:44;8.90;99.90
37050;DHT22;22958;51.232;6.826;2023-04-24T05:39:09;8.90;99.90
37050;DHT22;22958;51.232;6.826;2023-04-24T05:41:35;8.90;99.90
37050;DHT22;22958;51.232;6.826;2023-04-24T05:44:00;8.80;99.90
37050;DHT22;22958;51.232;6.826;2023-04-24T05:46:26;8.80;99.90
37050;DHT22;22958;51.232;6.826;2023-04-24T05:48:51;8.80;99.90
37050;DHT22;22958;51.232;6.826;2023-04-24T05:51:17;8.80;99.90
37050;DHT22;22958;51.232;6.826;2023-04-24T05:53:42;8.80;99.90
37050;DHT22;22958;51.232;6.826;2023-04-24T05:56:08;8.90;99.90
37050;DHT22;22958;51.232;6.826;2023-04-24T05:58:34;8.90;99.90
37050;DHT22;22958;51.232;6.826;2023-04-24T06:00:59;9.00;99.90
37050;DHT22;22958;51.232;6.826;2023-04-24T06:03:26;9.00;99.90
37050;DHT22;22958;51.232;6.826;2023-04-24T06:05:52;8.90;99.90
37050;DHT22;22958;51.232;6.826;2023-04-24T06:08:18;8.90;99.90
37050;DHT22;22958;51.232;6.826;2023-04-24T06:10:44;8.90;99.90
37050;DHT22;22958;51.232;6.826;2023-04-24T06:13:09;8.80;99.90
37050;DHT22;22958;51.232;6.826;2023-04-24T06:15:35;8.70;99.90
37050;DHT22;22958;51.232;6.826;2023-04-24T06:18:00;8.70;99.90
37050;DHT22;22958;51.232;6.826;2023-04-24T06:20:26;8.60;99.90
37050;DHT22;22958;51.232;6.826;2023-04-24T06:22:52;8.60;99.90
37050;DHT22;22958;51.232;6.826;2023-04-24T06:25:17;8.60;99.90
37050;DHT22;22958;51.232;6.826;2023-04-24T06:27:43;8.60;99.90
37050;DHT22;22958;51.232;6.826;2023-04-24T06:30:09;8.60;99.90
37050;DHT22;22958;51.232;6.826;2023-04-24T06:32:34;8.60;99.90
37050;DHT22;22958;51.232;6.826;2023-04-24T06:35:00;8.70;99.90
37050;DHT22;22958;51.232;6.826;2023-04-24T06:37:26;8.60;99.90
37050;DHT22;22958;51.232;6.826;2023-04-24T06:39:51;8.60;99.90
37050;DHT22;22958;51.232;6.826;2023-04-24T06:42:17;8.60;99.90
37050;DHT22;22958;51.232;6.826;2023-04-24T06:44:42;8.60;99.90
37050;DHT22;22958;51.232;6.826;2023-04-24T06:47:09;8.60;99.90
37050;DHT22;22958;51.232;6.826;2023-04-24T06:49:36;8.60;99.90
37050;DHT22;22958;51.232;6.826;2023-04-24T06:52:02;8.50;99.90
37050;DHT22;22958;51.232;6.826;2023-04-24T06:54:28;8.50;99.90
37050;DHT22;22958;51.232;6.826;2023-04-24T06:56:54;8.50;99.90
37050;DHT22;22958;51.232;6.826;2023-04-24T06:59:20;8.50;99.90
37050;DHT22;22958;51.232;6.826;2023-04-24T07:01:46;8.60;99.90
37050;DHT22;22958;51.232;6.826;2023-04-24T07:04:11;8.50;99.90
37050;DHT22;22958;51.232;6.826;2023-04-24T07:06:38;8.50;99.90
37050;DHT22;22958;51.232;6.826;2023-04-24T07:09:04;8.50;99.90
37050;DHT22;22958;51.232;6.826;2023-04-24T07:11:30;8.50;99.90
37050;DHT22;22958;51.232;6.826;2023-04-24T07:13:55;8.50;99.90
37050;DHT22;22958;51.232;6.826;2023-04-24T07:16:21;8.50;99.90
37050;DHT22;22958;51.232;6.826;2023-04-24T07:18:47;8.40;99.90
37050;DHT22;22958;51.232;6.826;2023-04-24T07:21:12;8.40;99.90
37050;DHT22;22958;51.232;6.826;2023-04-24T07:23:38;8.40;99.90
37050;DHT22;22958;51.232;6.826;2023-04-24T07:26:04;8.40;99.90
37050;DHT22;22958;51.232;6.826;2023-04-24T07:28:29;8.40;99.90
37050;DHT22;22958;51.232;6.826;2023-04-24T07:30:58;8.40;99.90
37050;DHT22;22958;51.232;6.826;2023-04-24T07:33:25;8.30;99.90
37050;DHT22;22958;51.232;6.826;2023-04-24T07:35:51;8.30;99.90
37050;DHT22;22958;51.232;6.826;2023-04-24T07:38:17;8.30;99.90
37050;DHT22;22958;51.232;6.826;2023-04-24T07:40:45;8.30;99.90
37050;DHT22;22958;51.232;6.826;2023-04-24T07:43:11;8.20;99.90
37050;DHT22;22958;51.232;6.826;2023-04-24T07:45:36;8.10;99.90
37050;DHT22;22958;51.232;6.826;2023-04-24T07:48:03;8.00;99.90
37050;DHT22;22958;51.232;6.826;2023-04-24T07:50:28;8.00;99.90
37050;DHT22;22958;51.232;6.826;2023-04-24T07:52:54;7.90;99.90
37050;DHT22;22958;51.232;6.826;2023-04-24T07:55:20;7.70;99.90
37050;DHT22;22958;51.232;6.826;2023-04-24T07:57:45;7.60;99.90
37050;DHT22;22958;51.232;6.826;2023-04-24T08:00:11;7.50;99.90
37050;DHT22;22958;51.232;6.826;2023-04-24T08:02:37;7.40;99.90
37050;DHT22;22958;51.232;6.826;2023-04-24T08:05:02;7.30;99.90
37050;DHT22;22958;51.232;6.826;2023-04-24T08:07:29;7.30;99.90
37050;DHT22;22958;51.232;6.826;2023-04-24T08:09:54;7.30;99.90
37050;DHT22;22958;51.232;6.826;2023-04-24T08:12:20;7.30;99.90
37050;DHT22;22958;51.232;6.826;2023-04-24T08:14:45;7.30;99.90
37050;DHT22;22958;51.232;6.826;2023-04-24T08:17:11;7.40;99.90
37050;DHT22;22958;51.232;6.826;2023-04-24T08:19:36;7.40;99.90
37050;DHT22;22958;51.232;6.826;2023-04-24T08:22:02;7.40;99.90
37050;DHT22;22958;51.232;6.826;2023-04-24T08:24:29;7.50;99.90
37050;DHT22;22958;51.232;6.826;2023-04-24T08:26:54;7.50;99.90
37050;DHT22;22958;51.232;6.826;2023-04-24T08:29:22;7.60;99.90
37050;DHT22;22958;51.232;6.826;2023-04-24T08:31:47;7.60;99.90
37050;DHT22;22958;51.232;6.826;2023-04-24T08:34:13;7.60;99.90
37050;DHT22;22958;51.232;6.826;2023-04-24T08:36:38;7.70;99.90
37050;DHT22;22958;51.232;6.826;2023-04-24T08:39:06;7.80;99.90
37050;DHT22;22958;51.232;6.826;2023-04-24T08:41:34;7.90;99.90
37050;DHT22;22958;51.232;6.826;2023-04-24T08:44:00;7.90;99.90
37050;DHT22;22958;51.232;6.826;2023-04-24T08:46:27;7.90;99.90
37050;DHT22;22958;51.232;6.826;2023-04-24T08:48:53;8.00;99.90
37050;DHT22;22958;51.232;6.826;2023-04-24T08:51:19;8.00;99.90
37050;DHT22;22958;51.232;6.826;2023-04-24T08:53:46;8.10;99.90
37050;DHT22;22958;51.232;6.826;2023-04-24T08:56:11;8.10;99.90
37050;DHT22;22958;51.232;6.826;2023-04-24T08:58:38;8.10;99.90
37050;DHT22;22958;51.232;6.826;2023-04-24T09:01:04;8.10;99.90
37050;DHT22;22958;51.232;6.826;2023-04-24T09:03:31;8.20;99.90
37050;DHT22;22958;51.232;6.826;2023-04-24T09:05:58;8.20;99.90
37050;DHT22;22958;51.232;6.826;2023-04-24T09:08:26;8.20;99.90
37050;DHT22;22958;51.232;6.826;2023-04-24T09:10:52;8.20;99.90
37050;DHT22;22958;51.232;6.826;2023-04-24T09:13:19;8.20;99.90
37050;DHT22;22958;51.232;6.826;2023-04-24T09:15:45;8.20;99.90
37050;DHT22;22958;51.232;6.826;2023-04-24T09:18:10;8.10;99.90
37050;DHT22;22958;51.232;6.826;2023-04-24T09:20:56;8.10;99.90
37050;DHT22;22958;51.232;6.826;2023-04-24T09:23:22;8.10;99.90
37050;DHT22;22958;51.232;6.826;2023-04-24T09:25:54;8.10;99.90
37050;DHT22;22958;51.232;6.826;2023-04-24T09:28:25;8.10;99.90
37050;DHT22;22958;51.232;6.826;2023-04-24T09:31:09;8.10;99.90
37050;DHT22;22958;51.232;6.826;2023-04-24T09:33:35;8.20;99.90
37050;DHT22;22958;51.232;6.826;2023-04-24T09:36:02;8.10;99.90
37050;DHT22;22958;51.232;6.826;2023-04-24T09:38:46;8.10;99.90
37050;DHT22;22958;51.232;6.826;2023-04-24T09:41:13;8.10;99.90
37050;DHT22;22958;51.232;6.826;2023-04-24T09:43:39;8.10;99.90
37050;DHT22;22958;51.232;6.826;2023-04-24T09:46:08;8.10;99.90
37050;DHT22;22958;51.232;6.826;2023-04-24T09:48:37;8.20;99.90
37050;DHT22;22958;51.232;6.826;2023-04-24T09:51:05;8.20;99.90
37050;DHT22;22958;51.232;6.826;2023-04-24T09:53:32;8.20;99.90
37050;DHT22;22958;51.232;6.826;2023-04-24T09:56:08;8.20;99.90
37050;DHT22;22958;51.232;6.826;2023-04-24T09:58:36;8.30;99.90
37050;DHT22;22958;51.232;6.826;2023-04-24T10:01:01;8.40;99.90
37050;DHT22;22958;51.232;6.826;2023-04-24T10:03:30;8.50;99.90
37050;DHT22;22958;51.232;6.826;2023-04-24T10:05:59;8.60;99.90
37050;DHT22;22958;51.232;6.826;2023-04-24T10:08:25;8.60;99.90
37050;DHT22;22958;51.232;6.826;2023-04-24T10:10:52;8.60;99.90
37050;DHT22;22958;51.232;6.826;2023-04-24T10:13:17;8.60;99.90
37050;DHT22;22958;51.232;6.826;2023-04-24T10:15:44;8.60;99.90
37050;DHT22;22958;51.232;6.826;2023-04-24T10:18:10;8.60;99.90
37050;DHT22;22958;51.232;6.826;2023-04-24T10:20:37;8.60;99.90
37050;DHT22;22958;51.232;6.826;2023-04-24T10:23:04;8.60;99.90
37050;DHT22;22958;51.232;6.826;2023-04-24T10:25:31;8.60;99.90
37050;DHT22;22958;51.232;6.826;2023-04-24T10:27:58;8.60;99.90
37050;DHT22;22958;51.232;6.826;2023-04-24T10:30:26;8.60;99.90
37050;DHT22;22958;51.232;6.826;2023-04-24T10:32:52;8.60;99.90
37050;DHT22;22958;51.232;6.826;2023-04-24T10:35:18;8.60;99.90
37050;DHT22;22958;51.232;6.826;2023-04-24T10:37:45;8.60;99.90
37050;DHT22;22958;51.232;6.826;2023-04-24T10:40:16;8.60;99.90
37050;DHT22;22958;51.232;6.826;2023-04-24T10:42:42;8.60;99.90
37050;DHT22;22958;51.232;6.826;2023-04-24T10:45:19;8.60;99.90
37050;DHT22;22958;51.232;6.826;2023-04-24T10:48:08;8.60;99.90
37050;DHT22;22958;51.232;6.826;2023-04-24T10:50:51;8.50;99.90
37050;DHT22;22958;51.232;6.826;2023-04-24T10:53:19;8.50;99.90
37050;DHT22;22958;51.232;6.826;2023-04-24T11:01:26;8.70;99.90
37050;DHT22;22958;51.232;6.826;2023-04-24T11:03:57;8.70;99.90
37050;DHT22;22958;51.232;6.826;2023-04-24T11:06:32;8.80;99.90
37050;DHT22;22958;51.232;6.826;2023-04-24T11:09:08;9.00;99.90
37050;DHT22;22958;51.232;6.826;2023-04-24T11:11:35;9.20;99.90
37050;DHT22;22958;51.232;6.826;2023-04-24T11:14:02;9.50;99.90
37050;DHT22;22958;51.232;6.826;2023-04-24T11:16:31;9.50;99.90
37050;DHT22;22958;51.232;6.826;2023-04-24T11:19:28;9.40;99.90
37050;DHT22;22958;51.232;6.826;2023-04-24T11:22:02;9.20;99.90
37050;DHT22;22958;51.232;6.826;2023-04-24T11:27:14;9.10;99.90
37050;DHT22;22958;51.232;6.826;2023-04-24T11:32:36;8.90;99.90
37050;DHT22;22958;51.232;6.826;2023-04-24T11:35:13;9.00;99.90
37050;DHT22;22958;51.232;6.826;2023-04-24T11:37:42;9.10;99.90
37050;DHT22;22958;51.232;6.826;2023-04-24T11:40:12;9.20;99.90
37050;DHT22;22958;51.232;6.826;2023-04-24T11:42:48;9.30;99.90
37050;DHT22;22958;51.232;6.826;2023-04-24T11:45:22;9.40;99.90
37050;DHT22;22958;51.232;6.826;2023-04-24T11:47:48;9.60;99.90
37050;DHT22;22958;51.232;6.826;2023-04-24T11:50:17;9.90;99.90
37050;DHT22;22958;51.232;6.826;2023-04-24T11:52:45;10.50;99.90
37050;DHT22;22958;51.232;6.826;2023-04-24T11:57:39;10.00;99.90
37050;DHT22;22958;51.232;6.826;2023-04-24T12:00:15;9.90;99.90
37050;DHT22;22958;51.232;6.826;2023-04-24T12:02:40;9.60;99.90
37050;DHT22;22958;51.232;6.826;2023-04-24T12:05:06;9.60;99.90
37050;DHT22;22958;51.232;6.826;2023-04-24T12:07:40;9.60;99.90
37050;DHT22;22958;51.232;6.826;2023-04-24T12:10:08;9.50;99.90
37050;DHT22;22958;51.232;6.826;2023-04-24T12:12:34;9.60;99.90
37050;DHT22;22958;51.232;6.826;2023-04-24T12:15:05;9.70;99.90
37050;DHT22;22958;51.232;6.826;2023-04-24T12:17:32;9.70;99.90
37050;DHT22;22958;51.232;6.826;2023-04-24T12:19:59;9.90;99.90
37050;DHT22;22958;51.232;6.826;2023-04-24T12:22:25;10.00;99.90
37050;DHT22;22958;51.232;6.826;2023-04-24T12:25:02;10.20;99.90
37050;DHT22;22958;51.232;6.826;2023-04-24T12:27:30;10.10;99.90
37050;DHT22;22958;51.232;6.826;2023-04-24T12:29:58;10.20;99.90
37050;DHT22;22958;51.232;6.826;2023-04-24T12:32:24;10.40;99.90
37050;DHT22;22958;51.232;6.826;2023-04-24T12:34:51;10.90;99.90
37050;DHT22;22958;51.232;6.826;2023-04-24T12:37:17;11.30;99.90
37050;DHT22;22958;51.232;6.826;2023-04-24T12:40:06;11.10;99.90
37050;DHT22;22958;51.232;6.826;2023-04-24T12:42:32;11.30;99.90
37050;DHT22;22958;51.232;6.826;2023-04-24T12:45:07;11.10;99.90
37050;DHT22;22958;51.232;6.826;2023-04-24T12:47:33;11.40;99.90
37050;DHT22;22958;51.232;6.826;2023-04-24T12:50:00;11.70;99.90
37050;DHT22;22958;51.232;6.826;2023-04-24T12:52:27;11.90;99.90
37050;DHT22;22958;51.232;6.826;2023-04-24T12:54:54;11.90;99.90
37050;DHT22;22958;51.232;6.826;2023-04-24T12:57:20;11.90;99.90
37050;DHT22;22958;51.232;6.826;2023-04-24T12:59:46;11.70;99.90
37050;DHT22;22958;51.232;6.826;2023-04-24T13:02:12;11.50;99.90
37050;DHT22;22958;51.232;6.826;2023-04-24T13:04:37;11.10;99.90
37050;DHT22;22958;51.232;6.826;2023-04-24T13:07:03;11.10;99.90
37050;DHT22;22958;51.232;6.826;2023-04-24T13:09:29;11.30;99.90
37050;DHT22;22958;51.232;6.826;2023-04-24T13:11:55;11.40;99.90
37050;DHT22;22958;51.232;6.826;2023-04-24T13:14:22;11.80;99.90
37050;DHT22;22958;51.232;6.826;2023-04-24T13:16:47;11.90;99.90
37050;DHT22;22958;51.232;6.826;2023-04-24T13:19:13;11.90;99.90
37050;DHT22;22958;51.232;6.826;2023-04-24T13:21:39;12.10;99.90
37050;DHT22;22958;51.232;6.826;2023-04-24T13:24:04;12.10;99.90
37050;DHT22;22958;51.232;6.826;2023-04-24T13:26:31;12.00;99.90
37050;DHT22;22958;51.232;6.826;2023-04-24T13:28:56;12.30;99.90
37050;DHT22;22958;51.232;6.826;2023-04-24T13:31:22;12.30;99.90
37050;DHT22;22958;51.232;6.826;2023-04-24T13:33:47;12.50;99.90
37050;DHT22;22958;51.232;6.826;2023-04-24T13:36:13;13.10;99.90
37050;DHT22;22958;51.232;6.826;2023-04-24T13:38:38;13.50;99.90
37050;DHT22;22958;51.232;6.826;2023-04-24T13:41:04;12.90;99.90
37050;DHT22;22958;51.232;6.826;2023-04-24T13:43:30;12.30;99.90
37050;DHT22;22958;51.232;6.826;2023-04-24T13:45:55;11.90;99.90
37050;DHT22;22958;51.232;6.826;2023-04-24T13:48:21;11.60;99.90
37050;DHT22;22958;51.232;6.826;2023-04-24T13:50:47;11.30;99.90
37050;DHT22;22958;51.232;6.826;2023-04-24T13:53:13;11.30;99.90
37050;DHT22;22958;51.232;6.826;2023-04-24T13:55:39;11.20;99.90
37050;DHT22;22958;51.232;6.826;2023-04-24T13:58:04;11.00;99.90
37050;DHT22;22958;51.232;6.826;2023-04-24T14:00:30;11.00;99.90
37050;DHT22;22958;51.232;6.826;2023-04-24T14:02:56;11.20;99.90
37050;DHT22;22958;51.232;6.826;2023-04-24T14:05:21;11.30;99.90
37050;DHT22;22958;51.232;6.826;2023-04-24T14:07:47;11.20;99.90
37050;DHT22;22958;51.232;6.826;2023-04-24T14:10:13;11.30;99.90
37050;DHT22;22958;51.232;6.826;2023-04-24T14:12:38;11.00;99.90
37050;DHT22;22958;51.232;6.826;2023-04-24T14:15:04;11.20;99.90
37050;DHT22;22958;51.232;6.826;2023-04-24T14:17:30;11.50;99.90
37050;DHT22;22958;51.232;6.826;2023-04-24T14:19:56;11.40;99.90
37050;DHT22;22958;51.232;6.826;2023-04-24T14:22:22;11.40;99.90
37050;DHT22;22958;51.232;6.826;2023-04-24T14:24:47;11.60;99.90
37050;DHT22;22958;51.232;6.826;2023-04-24T14:27:13;11.50;99.90
37050;DHT22;22958;51.232;6.826;2023-04-24T14:29:39;11.60;99.90
37050;DHT22;22958;51.232;6.826;2023-04-24T14:32:04;11.50;99.90
37050;DHT22;22958;51.232;6.826;2023-04-24T14:34:30;11.50;99.90
37050;DHT22;22958;51.232;6.826;2023-04-24T14:36:56;11.40;99.90
37050;DHT22;22958;51.232;6.826;2023-04-24T14:39:21;11.90;99.90
37050;DHT22;22958;51.232;6.826;2023-04-24T14:41:47;12.10;99.90
37050;DHT22;22958;51.232;6.826;2023-04-24T14:44:12;11.80;99.90
37050;DHT22;22958;51.232;6.826;2023-04-24T14:46:38;11.80;99.90
37050;DHT22;22958;51.232;6.826;2023-04-24T14:49:03;11.80;99.90
37050;DHT22;22958;51.232;6.826;2023-04-24T14:51:29;11.90;99.90
37050;DHT22;22958;51.232;6.826;2023-04-24T14:53:56;12.10;99.90
37050;DHT22;22958;51.232;6.826;2023-04-24T14:56:22;11.90;99.90
37050;DHT22;22958;51.232;6.826;2023-04-24T14:58:48;12.10;99.90
37050;DHT22;22958;51.232;6.826;2023-04-24T15:01:14;12.20;99.90
37050;DHT22;22958;51.232;6.826;2023-04-24T15:03:39;11.80;99.90
37050;DHT22;22958;51.232;6.826;2023-04-24T15:06:05;11.40;99.90
37050;DHT22;22958;51.232;6.826;2023-04-24T15:08:31;11.60;99.90
37050;DHT22;22958;51.232;6.826;2023-04-24T15:10:56;11.90;99.90
37050;DHT22;22958;51.232;6.826;2023-04-24T15:13:22;12.00;99.90
37050;DHT22;22958;51.232;6.826;2023-04-24T15:15:47;11.80;99.90
37050;DHT22;22958;51.232;6.826;2023-04-24T15:18:13;12.30;99.90
37050;DHT22;22958;51.232;6.826;2023-04-24T15:20:39;13.30;99.90
37050;DHT22;22958;51.232;6.826;2023-04-24T15:23:05;12.80;99.90
37050;DHT22;22958;51.232;6.826;2023-04-24T15:25:32;12.70;99.90
37050;DHT22;22958;51.232;6.826;2023-04-24T15:27:58;12.60;99.90
37050;DHT22;22958;51.232;6.826;2023-04-24T15:30:24;12.30;99.90
37050;DHT22;22958;51.232;6.826;2023-04-24T15:32:50;12.20;99.90
37050;DHT22;22958;51.232;6.826;2023-04-24T15:35:15;12.70;99.90
37050;DHT22;22958;51.232;6.826;2023-04-24T15:37:41;12.60;99.90
37050;DHT22;22958;51.232;6.826;2023-04-24T15:40:08;12.50;99.90
37050;DHT22;22958;51.232;6.826;2023-04-24T15:42:34;12.60;99.90
37050;DHT22;22958;51.232;6.826;2023-04-24T15:44:59;12.70;99.90
37050;DHT22;22958;51.232;6.826;2023-04-24T15:47:25;12.60;99.90